Aviation Digital Data Service (ADDS)

Output produced by METARs form (2226 UTC 23 March 2019)
found at http://www.aviationweather.gov/metar/data/
 
Forecast for: ZJHK (HAIKOU , CN)
Text: TAF ZJHK 231928Z 2400/2424 09004MPS 5000 BR BKN010 BKN020 TX28/2407Z TN21/2421Z
Forecast period: 0000 to 0100 UTC 24 March 2019
Forecast type: FROM: standard forecast or significant change
Winds: from the E (90 degrees) at 9 MPH (8 knots; 4.1 m/s)
Visibility: 3 miles (5 km)
Ceiling: 1000 feet AGL
Clouds: broken clouds at 1000 feet AGL
broken clouds at 2000 feet AGL
Weather: BR  (mist)
Text: BECMG 2401/2402 SCT010 BKN015
Forecast period: 0100 UTC 24 March 2019 to 0000 UTC 25 March 2019
Forecast type: BECOMING: Conditions expected to become as follows by 0200 UTC 24 March 2019
Winds: from the E (90 degrees) at 9 MPH (8 knots; 4.1 m/s)
Visibility: 3 miles (5 km)
Ceiling: 1500 feet AGL
Clouds: scattered clouds at 1000 feet AGL
broken clouds at 1500 feet AGL
Weather: BR  (mist)
Text: TEMPO 2406/2412 BKN023 FEW026CB
Forecast period: 0600 to 1200 UTC 24 March 2019
Forecast type: TEMPORARY: The following changes expected for less than half the time period
Visibility: missing
Ceiling: 2300 feet AGL
Clouds: broken clouds at 2300 feet AGL
few clouds at 2600 feet AGL
Weather: no significant weather forecast for this period